Portada
METAR-TAF:

METAR-TAF

Aeropuertos :

Sevilla, España

Aeropuerto de Sevilla

latitud: 37-25N, longitud: 005-54W, altitud: 34 m

Observación

El informe se hizo hace 22 minutos, a las 18:00 UTC
Viento 4 kt del suroeste
Temperatura 30°C
Humedad 29%
Presión 1016 hPa
Visibilidad 10 km o más
sin nubes por debajo de 1500 m y sin presencia de cumulonimbus.

METAR: LEZL 231800Z 23004KT CAVOK 30/10 Q1016 NOSIG

Hora: 20:22 (18:22 UTC)

Pronóstico

El informe se hizo hace 4 horas y 22 minutos, a las 14:00 UTC
Pronóstico válido del 23 a las 15 UTC al 24 a las 15 UTC
Viento 2 kt con dirección variable
Visibilidad 10 km o más
sin nubes por debajo de 1500 m y sin presencia de cumulonimbus.
Probabilidad 40% :
Temporalmente
del 23 a las 16 UTC al 23 a las 23 UTC
Viento 10 kt del suroeste

TAF: LEZL 231400Z 2315/2415 VRB02KT CAVOK TX32/2315Z TN18/2406Z PROB40 TEMPO 2316/2323 23010KT

Observaciones y pronósticos meteorológicos de más de 4000 aeropuertos (mensajes METAR y TAF).

Los puntos amarillos y rojos representan las estaciones disponibles.

Ponga el ratón en el punto deseado para ver el nombre de la estación.

Haga clic para ver las observaciones y los pronósticos meteorológicos.

Para cambiar el mapa : haga clic en los botones verdes con una cruz de color negro para hacer un zoom, en el botón verde con un guión para alejar o en las flechas verdes para mapas adyacentes.


METAR-TAF: